Time;durP1;ratioP1;P1;durP2;ratioP2;P2;SDS_P1;SDS_P2;PMS_P1;PMS_P2;Temp;Humidity;BMP_temperature;BMP_pressure;BME280_temperature;BME280_humidity;BME280_pressure;Samples;Min_cycle;Max_cycle;Signal;HPM_P1;HPM_P2
2023/08/22 00:01:57;;;;;;;1.50;1.10;;;;;;;20.51;95.86;101797.69;21155250;28;20048;-66
2023/08/22 00:11:59;;;;;;;1.27;1.00;;;;;;;20.49;95.65;101761.78;21154404;28;20051;-66
2023/08/22 00:22:00;;;;;;;1.45;0.95;;;;;;;20.49;95.78;101742.84;21158523;28;20055;-66
2023/08/22 00:32:02;;;;;;;1.08;1.00;;;;;;;20.50;95.56;101733.75;21169696;28;20048;-65
2023/08/22 00:42:04;;;;;;;2.80;1.30;;;;;;;20.51;95.62;101757.09;21168673;28;20059;-65
2023/08/22 00:52:07;;;;;;;1.20;1.10;;;;;;;20.51;95.53;101754.41;21167696;28;20066;-65
2023/08/22 01:02:09;;;;;;;1.08;0.75;;;;;;;20.53;95.41;101760.53;21148740;28;20074;-65
2023/08/22 01:12:18;;;;;;;1.40;1.00;;;;;;;20.52;95.18;101753.41;21166488;28;20048;-65
2023/08/22 01:22:26;;;;;;;0.80;0.80;;;;;;;20.52;95.17;101739.88;21166144;28;20059;-65
2023/08/22 01:32:30;;;;;;;0.73;0.70;;;;;;;20.52;94.94;101737.19;21145928;28;20104;-65
2023/08/22 01:42:33;;;;;;;1.15;1.00;;;;;;;20.48;95.00;101724.91;21146318;28;20061;-66
2023/08/22 01:52:34;;;;;;;1.35;0.90;;;;;;;20.50;94.91;101712.13;21161679;28;20087;-65
2023/08/22 02:02:36;;;;;;;2.72;1.05;;;;;;;20.48;94.68;101709.53;21161914;28;20066;-66
2023/08/22 02:12:38;;;;;;;0.90;0.73;;;;;;;20.49;94.72;101716.66;21143270;28;20071;-65
2023/08/22 02:22:40;;;;;;;0.93;0.82;;;;;;;20.48;94.51;101705.97;21142379;28;20044;-65
2023/08/22 02:32:42;;;;;;;1.80;1.20;;;;;;;20.47;94.38;101693.44;21159413;28;20078;-65
2023/08/22 02:42:44;;;;;;;0.80;0.80;;;;;;;20.45;94.30;101673.78;21160140;28;20499;-65
2023/08/22 02:52:46;;;;;;;0.88;0.80;;;;;;;20.43;94.03;101674.78;21140243;28;20043;-65
2023/08/22 03:02:48;;;;;;;1.10;1.00;;;;;;;20.43;93.93;101685.59;21138828;28;20051;-65
2023/08/22 03:12:50;;;;;;;2.53;1.10;;;;;;;20.41;93.84;101687.59;21138444;28;20047;-67
2023/08/22 03:22:52;;;;;;;1.00;0.90;;;;;;;20.40;94.04;101685.88;21138642;28;20047;-65
2023/08/22 03:32:54;;;;;;;2.88;1.02;;;;;;;20.36;94.06;101679.03;21138120;28;20044;-66
2023/08/22 03:42:56;;;;;;;0.75;0.73;;;;;;;20.34;94.20;101686.41;21137740;28;20105;-66
2023/08/22 03:52:58;;;;;;;1.42;0.90;;;;;;;20.27;93.98;101677.09;21136784;28;20054;-65
2023/08/22 04:03:00;;;;;;;0.70;0.70;;;;;;;20.24;94.07;101664.72;21150953;28;20082;-65
2023/08/22 04:13:03;;;;;;;2.08;0.98;;;;;;;20.25;93.95;101671.84;21152942;28;20063;-65
2023/08/22 04:23:04;;;;;;;1.92;0.90;;;;;;;20.23;93.71;101663.00;21170438;28;20142;-65
2023/08/22 04:33:06;;;;;;;1.60;1.10;;;;;;;20.22;93.55;101668.53;21151669;28;20116;-65
2023/08/22 04:43:08;;;;;;;1.02;0.88;;;;;;;20.18;93.14;101669.78;21150751;28;20271;-66
2023/08/22 04:53:10;;;;;;;1.20;1.10;;;;;;;20.20;93.15;101662.41;21167184;28;20455;-66
2023/08/22 05:03:14;;;;;;;1.20;1.10;;;;;;;20.19;93.09;101657.97;21149953;28;20495;-65
2023/08/22 05:13:18;;;;;;;0.95;0.90;;;;;;;20.17;92.81;101671.66;21146416;28;20515;-66
2023/08/22 05:23:20;;;;;;;1.20;1.10;;;;;;;20.17;92.71;101678.88;21147168;28;20047;-65
2023/08/22 05:33:22;;;;;;;0.82;0.82;;;;;;;20.13;92.61;101679.16;21166113;28;20097;-66
2023/08/22 05:43:24;;;;;;;0.90;0.90;;;;;;;20.16;92.87;101685.28;21145536;28;20054;-65
2023/08/22 05:53:27;;;;;;;1.23;1.13;;;;;;;20.16;93.08;101682.59;21137085;27;20420;-65
2023/08/22 06:03:28;;;;;;;1.95;1.40;;;;;;;20.16;93.43;101679.88;21165031;27;20051;-65
2023/08/22 06:13:30;;;;;;;1.83;1.65;;;;;;;20.18;94.27;101681.47;21157157;27;20846;-65
2023/08/22 06:23:33;;;;;;;2.33;1.60;;;;;;;20.22;94.45;101682.06;21180756;27;20102;-66
2023/08/22 06:33:34;;;;;;;1.75;1.35;;;;;;;20.26;95.04;101678.09;21127308;27;20131;-66
2023/08/22 06:43:39;;;;;;;2.65;1.70;;;;;;;20.34;95.69;101686.41;21155366;27;20138;-67
2023/08/22 06:53:41;;;;;;;4.03;1.63;;;;;;;20.39;96.63;101694.97;21130459;27;20137;-71
2023/08/22 07:03:43;;;;;;;3.67;1.90;;;;;;;20.48;97.53;101695.16;21154328;27;20091;-66
2023/08/22 07:13:45;;;;;;;4.88;1.55;;;;;;;20.58;97.84;101698.78;21140244;27;20511;-68
2023/08/22 07:23:47;;;;;;;3.40;1.05;;;;;;;20.73;97.65;101692.00;21162132;27;20059;-70
2023/08/22 07:33:49;;;;;;;4.95;1.77;;;;;;;20.87;97.47;101689.97;21146862;28;20048;-68
2023/08/22 07:43:51;;;;;;;4.28;1.70;;;;;;;20.97;97.39;101698.97;21200308;27;20048;-68
2023/08/22 07:53:53;;;;;;;2.65;1.60;;;;;;;21.08;97.17;101697.13;21157061;28;20051;-69
2023/08/22 08:03:55;;;;;;;3.75;1.75;;;;;;;21.10;97.04;101697.84;21187750;28;20055;-70
2023/08/22 08:13:57;;;;;;;1.83;1.33;;;;;;;21.15;96.89;101711.81;21152628;28;20055;-69
2023/08/22 08:23:59;;;;;;;2.55;1.30;;;;;;;21.20;96.59;101704.13;21174611;28;20564;-69
2023/08/22 08:34:00;;;;;;;1.70;1.00;;;;;;;21.23;96.36;101712.03;21154646;28;20086;-67
2023/08/22 08:44:06;;;;;;;3.45;1.88;;;;;;;21.26;95.80;101706.31;21178955;27;20071;-67
2023/08/22 08:54:09;;;;;;;1.30;1.10;;;;;;;21.31;95.33;101711.31;21117882;28;20044;-67
2023/08/22 09:04:11;;;;;;;2.35;1.10;;;;;;;21.32;94.75;101710.31;21145882;27;20064;-68
2023/08/22 09:14:32;;;;;;;1.85;1.23;;;;;;;21.30;94.07;101710.47;21167583;27;20043;-68
2023/08/22 09:24:54;;;;;;;2.08;1.20;;;;;;;21.32;93.99;101706.75;21166266;27;20051;-68
2023/08/22 09:34:57;;;;;;;2.90;1.30;;;;;;;21.35;93.53;101701.06;21135348;27;20591;-68
2023/08/22 09:44:59;;;;;;;1.58;1.20;;;;;;;21.44;93.32;101706.50;21221791;27;20055;-68
2023/08/22 09:55:01;;;;;;;2.70;0.98;;;;;;;21.53;92.98;101707.50;21194562;27;20058;-67
2023/08/22 10:05:03;;;;;;;2.28;1.25;;;;;;;21.57;92.35;101714.34;21165502;27;20313;-68
2023/08/22 10:15:06;;;;;;;1.77;1.10;;;;;;;21.59;91.70;101714.19;21164669;27;20372;-68
2023/08/22 10:25:08;;;;;;;2.83;1.00;;;;;;;21.57;91.32;101716.19;21141863;28;20055;-68
2023/08/22 10:35:10;;;;;;;3.60;1.17;;;;;;;21.57;91.16;101711.63;21157421;28;20046;-68
2023/08/22 10:45:16;;;;;;;1.15;1.05;;;;;;;21.56;90.91;101693.66;21155499;28;20129;-68
2023/08/22 10:55:19;;;;;;;1.27;1.17;;;;;;;21.52;90.60;101696.81;21155756;28;20130;-69
2023/08/22 11:05:22;;;;;;;2.70;1.15;;;;;;;21.55;90.63;101705.50;21137442;27;20079;-68
2023/08/22 11:15:24;;;;;;;1.80;1.15;;;;;;;21.59;90.38;101704.22;21159432;27;20406;-68
2023/08/22 11:25:26;;;;;;;1.42;1.15;;;;;;;21.63;90.13;101701.22;21175442;27;20109;-68
2023/08/22 11:35:31;;;;;;;1.25;1.15;;;;;;;21.68;89.87;101699.00;21146155;27;20126;-68
2023/08/22 11:45:32;;;;;;;0.93;0.85;;;;;;;21.71;89.36;101696.00;21185399;28;20054;-68
2023/08/22 11:55:38;;;;;;;1.30;0.70;;;;;;;21.76;89.22;101701.84;21153027;28;20056;-68
2023/08/22 12:05:49;;;;;;;1.33;0.70;;;;;;;21.78;88.68;101691.72;21180262;27;20507;-69
2023/08/22 12:15:51;;;;;;;1.63;0.70;;;;;;;21.80;88.09;101696.97;21153414;28;20481;-69
2023/08/22 12:25:53;;;;;;;1.95;0.60;;;;;;;21.81;87.80;101702.25;21179957;27;20120;-68
2023/08/22 12:35:55;;;;;;;0.50;0.50;;;;;;;21.81;87.59;101710.41;21182128;27;20109;-69
2023/08/22 12:45:57;;;;;;;1.00;0.80;;;;;;;21.76;87.15;101699.13;21198848;27;20419;-69
2023/08/22 12:55:58;;;;;;;1.13;0.50;;;;;;;21.81;86.84;101701.41;21198821;27;20131;-69
2023/08/22 13:06:00;;;;;;;1.40;0.60;;;;;;;21.79;86.96;101693.41;21193134;27;20074;-68
2023/08/22 13:16:02;;;;;;;0.75;0.50;;;;;;;21.78;86.54;101686.28;21167295;27;20050;-69
2023/08/22 13:26:20;;;;;;;1.45;0.63;;;;;;;21.77;86.63;101690.00;21138272;27;20055;-69
2023/08/22 13:36:24;;;;;;;1.33;0.60;;;;;;;21.77;86.44;101681.00;21180947;27;20317;-69
2023/08/22 13:46:27;;;;;;;0.95;0.65;;;;;;;21.71;86.43;101668.91;21181324;27;20047;-70
2023/08/22 13:56:30;;;;;;;1.00;0.60;;;;;;;21.73;86.18;101673.16;21183998;27;20043;-69
2023/08/22 14:06:32;;;;;;;1.27;0.70;;;;;;;21.76;86.57;101677.44;21164088;27;20086;-70
2023/08/22 14:16:33;;;;;;;2.65;1.17;;;;;;;21.72;87.00;101671.44;21199989;27;20050;-70
2023/08/22 14:26:36;;;;;;;2.40;0.73;;;;;;;21.75;87.31;101669.44;21191480;27;20051;-71
2023/08/22 14:36:38;;;;;;;2.58;0.90;;;;;;;21.77;87.53;101664.75;21199906;27;20039;-70
2023/08/22 14:46:39;;;;;;;2.40;0.90;;;;;;;21.77;87.73;101671.03;21198700;27;20047;-70
2023/08/22 14:56:41;;;;;;;2.75;1.20;;;;;;;21.78;87.33;101670.03;21200318;27;20662;-68
2023/08/22 15:06:43;;;;;;;1.77;0.60;;;;;;;21.81;87.13;101661.59;21178516;27;20052;-69
2023/08/22 15:16:45;;;;;;;3.10;0.85;;;;;;;21.82;87.64;101657.91;21180376;27;20055;-70
2023/08/22 15:26:47;;;;;;;3.60;0.90;;;;;;;21.79;88.50;101650.06;21188422;27;20524;-70
2023/08/22 15:36:50;;;;;;;8.05;1.20;;;;;;;21.77;89.20;101652.06;21156950;28;20060;-66
2023/08/22 15:46:52;;;;;;;1.60;0.80;;;;;;;21.76;90.22;101655.78;21141958;28;20051;-71
2023/08/22 15:56:54;;;;;;;3.20;1.00;;;;;;;21.76;92.41;101655.78;21177767;27;20051;-71
2023/08/22 16:06:55;;;;;;;3.88;1.33;;;;;;;21.78;92.87;101648.34;21200381;27;20109;-69
2023/08/22 16:16:57;;;;;;;3.60;0.90;;;;;;;21.81;95.16;101658.03;21213887;27;20043;-69
2023/08/22 16:27:00;;;;;;;3.47;1.00;;;;;;;21.85;94.89;101646.75;21208951;27;20058;-70
2023/08/22 16:37:02;;;;;;;2.00;0.90;;;;;;;21.83;94.27;101654.19;21206873;27;20050;-70
2023/08/22 16:47:04;;;;;;;2.20;0.68;;;;;;;21.82;94.50;101660.59;21203560;27;20104;-71
2023/08/22 16:57:06;;;;;;;1.20;0.70;;;;;;;21.79;94.49;101654.59;21173975;27;20051;-71
2023/08/22 17:07:07;;;;;;;1.70;0.80;;;;;;;21.77;93.79;101654.78;21165347;27;20059;-71
2023/08/22 17:17:10;;;;;;;1.75;0.82;;;;;;;21.76;93.52;101652.19;21159045;27;20044;-72
2023/08/22 17:27:12;;;;;;;1.60;0.77;;;;;;;21.72;93.99;101660.59;21182909;27;20055;-72
2023/08/22 17:37:13;;;;;;;2.95;0.90;;;;;;;21.70;93.91;101664.47;21183740;27;20800;-70
2023/08/22 17:47:15;;;;;;;2.80;0.85;;;;;;;21.64;93.35;101656.88;21195792;27;20079;-70
2023/08/22 17:57:17;;;;;;;2.20;0.80;;;;;;;21.56;92.99;101661.13;21176709;27;20048;-71
2023/08/22 18:07:18;;;;;;;1.60;0.70;;;;;;;21.49;92.93;101668.13;21143340;27;20059;-71
2023/08/22 18:17:20;;;;;;;1.65;0.80;;;;;;;21.44;93.06;101678.53;21127376;28;20044;-71
2023/08/22 18:27:22;;;;;;;2.42;0.90;;;;;;;21.39;93.05;101683.53;21159503;27;20051;-71
2023/08/22 18:37:24;;;;;;;2.67;0.95;;;;;;;21.34;93.11;101688.50;21140877;28;20043;-71
2023/08/22 18:47:26;;;;;;;1.73;1.00;;;;;;;21.30;93.09;101683.38;21158613;28;20062;-71
2023/08/22 18:57:28;;;;;;;1.92;1.00;;;;;;;21.25;93.29;101701.91;21171205;27;20055;-71
2023/08/22 19:07:30;;;;;;;1.63;1.10;;;;;;;21.23;93.46;101712.03;21159933;27;20052;-71
2023/08/22 19:17:32;;;;;;;1.65;0.93;;;;;;;21.20;93.23;101725.81;21165488;27;20047;-71
2023/08/22 19:27:36;;;;;;;0.88;0.73;;;;;;;21.19;93.38;101734.09;21162993;27;20486;-71
2023/08/22 19:37:38;;;;;;;2.22;1.17;;;;;;;21.18;93.03;101743.19;21132353;28;20048;-71
2023/08/22 19:47:40;;;;;;;0.98;0.70;;;;;;;21.17;93.10;101742.31;21150826;28;20063;-71
2023/08/22 19:57:42;;;;;;;1.27;0.70;;;;;;;21.14;92.91;101732.66;21165775;28;20056;-71
2023/08/22 20:07:49;;;;;;;1.50;0.75;;;;;;;21.13;92.91;101735.47;21144975;28;20542;-71
2023/08/22 20:17:52;;;;;;;1.38;0.93;;;;;;;21.10;92.84;101746.59;21166255;28;20079;-71
2023/08/22 20:27:54;;;;;;;2.10;1.00;;;;;;;21.07;92.77;101739.59;21197857;28;20065;-71
2023/08/22 20:37:56;;;;;;;1.83;0.90;;;;;;;21.04;92.79;101741.72;21231760;27;20448;-71
2023/08/22 20:47:58;;;;;;;0.88;0.75;;;;;;;21.01;92.82;101732.88;21250200;27;20047;-71
2023/08/22 20:57:59;;;;;;;0.80;0.80;;;;;;;20.98;92.76;101738.56;21191222;27;20079;-71
2023/08/22 21:08:02;;;;;;;1.60;0.90;;;;;;;20.91;92.79;101726.59;21168372;27;20056;-71
2023/08/22 21:18:04;;;;;;;1.90;0.80;;;;;;;20.94;92.64;101737.13;21251058;27;20582;-71
2023/08/22 21:28:06;;;;;;;0.80;0.80;;;;;;;20.92;92.48;101739.13;21203083;27;20083;-71
2023/08/22 21:38:08;;;;;;;1.17;0.90;;;;;;;20.91;92.45;101742.81;21241080;27;20065;-71
2023/08/22 21:48:09;;;;;;;1.15;0.65;;;;;;;20.90;92.40;101751.94;21221783;27;20056;-71
2023/08/22 21:58:11;;;;;;;1.38;0.85;;;;;;;20.87;92.13;101757.63;21162106;27;20062;-71
2023/08/22 22:08:13;;;;;;;1.05;0.88;;;;;;;20.83;91.88;101756.19;21193372;27;20051;-71
2023/08/22 22:18:15;;;;;;;1.92;1.00;;;;;;;20.80;92.09;101761.88;21203903;27;20050;-71
2023/08/22 22:28:17;;;;;;;0.80;0.80;;;;;;;20.77;91.58;101753.94;21169347;27;20505;-71
2023/08/22 22:38:19;;;;;;;1.08;1.00;;;;;;;20.75;91.36;101753.22;21241392;27;20486;-71
2023/08/22 22:48:21;;;;;;;1.70;0.88;;;;;;;20.72;91.21;101744.41;21233266;27;20047;-71
2023/08/22 22:58:24;;;;;;;0.80;0.80;;;;;;;20.70;90.92;101746.38;21243859;27;20047;-71
2023/08/22 23:08:25;;;;;;;1.15;0.80;;;;;;;20.69;90.63;101741.97;21210002;27;20511;-71
2023/08/22 23:18:27;;;;;;;1.13;1.00;;;;;;;20.67;90.37;101735.00;21169388;27;20055;-71
2023/08/22 23:28:29;;;;;;;1.00;0.90;;;;;;;20.66;89.73;101722.44;21214845;27;20409;-71
2023/08/22 23:38:31;;;;;;;1.10;0.93;;;;;;;20.63;89.57;101734.38;21237923;27;20066;-71
2023/08/22 23:48:32;;;;;;;1.17;0.80;;;;;;;20.62;89.62;101719.16;21172570;28;20058;-71
2023/08/22 23:58:34;;;;;;;0.73;0.73;;;;;;;20.62;89.25;101702.91;21216239;28;20043;-71
